KABY/ABY METAR and TAF weather

Enter ICAO airport designator
Station Type Date Time Source
KABY METAR 2018/01/23 00:53 UTC NOAA

KABY 230053Z 18005KT 10SM BKN026 BKN033 OVC048 19/17 A2998 RMK AO2 SLP153 T01940172


Station Type Date Time Source
KABY Decoded METAR 2018/01/23 00:53 UTC NOAA

ALBANY SOUTHWEST GEORGIA, GA, United States (KABY) 31-32N 084-12W 58M
Jan 22, 2018 - 07:53 PM EST / 2018.01.23 0053 UTC
Wind: from the S (180 degrees) at 6 MPH (5 KT):0
Visibility: 10 mile(s):0
Sky conditions: overcast
Temperature: 66.9 F (19.4 C)
Dew Point: 63.0 F (17.2 C)
Relative Humidity: 87%
Pressure (altimeter): 29.98 in. Hg (1015 hPa)
ob: KABY 230053Z 18005KT 10SM BKN026 BKN033 OVC048 19/17 A2998 RMK AO2 SLP153 T01940172
cycle: 1

Station Type Date Time Source
KABY TAF 2018/01/22 18:22 UTC NOAA

TAF KABY 221720Z 2218/2318 16010KT 6SM -SHRA BR BKN012
FM230100 17008KT 3SM TSRA SCT007 BKN015CB
FM230400 21004KT 1SM -DZ BR OVC007
FM231300 30008KT P6SM SCT015


Example: see airport list